sensor_id;sensor_type;location;lat;lon;timestamp;P1;durP1;ratioP1;P2;durP2;ratioP2
25437;SDS011;13364;49.084;9.978;2022-11-04T00:01:54;5.40;;;4.10;;
25437;SDS011;13364;49.084;9.978;2022-11-04T00:04:22;4.65;;;3.50;;
25437;SDS011;13364;49.084;9.978;2022-11-04T00:06:51;5.72;;;3.53;;
25437;SDS011;13364;49.084;9.978;2022-11-04T00:09:20;6.60;;;3.65;;
25437;SDS011;13364;49.084;9.978;2022-11-04T00:11:49;8.55;;;4.07;;
25437;SDS011;13364;49.084;9.978;2022-11-04T00:14:34;5.30;;;3.30;;
25437;SDS011;13364;49.084;9.978;2022-11-04T00:17:01;4.70;;;3.13;;
25437;SDS011;13364;49.084;9.978;2022-11-04T00:19:46;4.68;;;3.40;;
25437;SDS011;13364;49.084;9.978;2022-11-04T00:22:41;5.95;;;3.42;;
25437;SDS011;13364;49.084;9.978;2022-11-04T00:25:27;4.07;;;3.17;;
25437;SDS011;13364;49.084;9.978;2022-11-04T00:28:13;6.43;;;3.42;;
25437;SDS011;13364;49.084;9.978;2022-11-04T00:35:20;4.18;;;3.13;;
25437;SDS011;13364;49.084;9.978;2022-11-04T00:37:47;4.68;;;2.90;;
25437;SDS011;13364;49.084;9.978;2022-11-04T00:40:14;5.68;;;2.88;;
25437;SDS011;13364;49.084;9.978;2022-11-04T00:42:42;3.63;;;2.78;;
25437;SDS011;13364;49.084;9.978;2022-11-04T00:45:10;5.60;;;2.85;;
25437;SDS011;13364;49.084;9.978;2022-11-04T00:47:37;3.90;;;2.78;;
25437;SDS011;13364;49.084;9.978;2022-11-04T00:50:05;5.28;;;3.05;;
25437;SDS011;13364;49.084;9.978;2022-11-04T00:52:32;4.63;;;2.80;;
25437;SDS011;13364;49.084;9.978;2022-11-04T00:54:59;3.58;;;2.63;;
25437;SDS011;13364;49.084;9.978;2022-11-04T00:57:26;3.83;;;2.90;;
25437;SDS011;13364;49.084;9.978;2022-11-04T00:59:53;4.55;;;2.65;;
25437;SDS011;13364;49.084;9.978;2022-11-04T01:02:20;6.50;;;2.78;;
25437;SDS011;13364;49.084;9.978;2022-11-04T01:04:47;2.90;;;2.45;;
25437;SDS011;13364;49.084;9.978;2022-11-04T01:07:14;4.60;;;2.58;;
25437;SDS011;13364;49.084;9.978;2022-11-04T01:09:41;4.63;;;2.22;;
25437;SDS011;13364;49.084;9.978;2022-11-04T01:12:08;2.63;;;2.05;;
25437;SDS011;13364;49.084;9.978;2022-11-04T01:14:35;3.20;;;2.03;;
25437;SDS011;13364;49.084;9.978;2022-11-04T01:17:02;2.83;;;2.20;;
25437;SDS011;13364;49.084;9.978;2022-11-04T01:19:29;2.63;;;2.03;;
25437;SDS011;13364;49.084;9.978;2022-11-04T01:21:56;4.20;;;2.20;;
25437;SDS011;13364;49.084;9.978;2022-11-04T01:24:23;3.80;;;2.08;;
25437;SDS011;13364;49.084;9.978;2022-11-04T01:26:50;4.20;;;2.22;;
25437;SDS011;13364;49.084;9.978;2022-11-04T01:29:17;3.05;;;2.05;;
25437;SDS011;13364;49.084;9.978;2022-11-04T01:31:44;6.15;;;2.25;;
25437;SDS011;13364;49.084;9.978;2022-11-04T01:34:11;3.60;;;1.90;;
25437;SDS011;13364;49.084;9.978;2022-11-04T01:36:38;3.00;;;2.10;;
25437;SDS011;13364;49.084;9.978;2022-11-04T01:39:05;2.55;;;1.90;;
25437;SDS011;13364;49.084;9.978;2022-11-04T01:41:33;2.00;;;1.60;;
25437;SDS011;13364;49.084;9.978;2022-11-04T01:44:42;2.38;;;1.60;;
25437;SDS011;13364;49.084;9.978;2022-11-04T01:47:12;4.20;;;1.65;;
25437;SDS011;13364;49.084;9.978;2022-11-04T01:49:43;2.10;;;1.60;;
25437;SDS011;13364;49.084;9.978;2022-11-04T01:52:18;3.20;;;1.63;;
25437;SDS011;13364;49.084;9.978;2022-11-04T01:54:58;2.35;;;1.70;;
25437;SDS011;13364;49.084;9.978;2022-11-04T01:57:35;3.95;;;1.70;;
25437;SDS011;13364;49.084;9.978;2022-11-04T02:00:07;3.83;;;1.70;;
25437;SDS011;13364;49.084;9.978;2022-11-04T02:05:23;2.83;;;1.40;;
25437;SDS011;13364;49.084;9.978;2022-11-04T02:07:52;3.25;;;1.65;;
25437;SDS011;13364;49.084;9.978;2022-11-04T02:10:21;1.75;;;1.30;;
25437;SDS011;13364;49.084;9.978;2022-11-04T02:12:51;3.40;;;1.75;;
25437;SDS011;13364;49.084;9.978;2022-11-04T02:18:28;5.28;;;1.60;;
25437;SDS011;13364;49.084;9.978;2022-11-04T02:29:58;3.03;;;2.03;;
25437;SDS011;13364;49.084;9.978;2022-11-04T02:41:52;3.20;;;1.85;;
25437;SDS011;13364;49.084;9.978;2022-11-04T02:44:36;2.33;;;1.55;;
25437;SDS011;13364;49.084;9.978;2022-11-04T02:47:12;2.00;;;1.35;;
25437;SDS011;13364;49.084;9.978;2022-11-04T02:49:57;2.42;;;1.60;;
25437;SDS011;13364;49.084;9.978;2022-11-04T02:55:34;3.47;;;1.87;;
25437;SDS011;13364;49.084;9.978;2022-11-04T02:58:08;2.03;;;1.50;;
25437;SDS011;13364;49.084;9.978;2022-11-04T03:00:40;2.45;;;1.42;;
25437;SDS011;13364;49.084;9.978;2022-11-04T03:03:10;2.67;;;1.25;;
25437;SDS011;13364;49.084;9.978;2022-11-04T03:05:48;3.38;;;1.45;;
25437;SDS011;13364;49.084;9.978;2022-11-04T03:08:24;2.42;;;1.20;;
25437;SDS011;13364;49.084;9.978;2022-11-04T03:11:12;4.97;;;1.30;;
25437;SDS011;13364;49.084;9.978;2022-11-04T03:13:58;4.68;;;1.45;;
25437;SDS011;13364;49.084;9.978;2022-11-04T03:16:37;2.90;;;1.30;;
25437;SDS011;13364;49.084;9.978;2022-11-04T03:21:57;5.03;;;1.40;;
25437;SDS011;13364;49.084;9.978;2022-11-04T03:24:40;4.22;;;1.75;;
25437;SDS011;13364;49.084;9.978;2022-11-04T03:27:13;4.38;;;1.42;;
25437;SDS011;13364;49.084;9.978;2022-11-04T03:30:00;1.90;;;1.20;;
25437;SDS011;13364;49.084;9.978;2022-11-04T03:35:05;1.85;;;1.20;;
25437;SDS011;13364;49.084;9.978;2022-11-04T03:37:33;3.17;;;1.33;;
25437;SDS011;13364;49.084;9.978;2022-11-04T03:40:00;3.35;;;1.52;;
25437;SDS011;13364;49.084;9.978;2022-11-04T03:42:29;2.53;;;1.87;;
25437;SDS011;13364;49.084;9.978;2022-11-04T03:45:00;2.25;;;0.95;;
25437;SDS011;13364;49.084;9.978;2022-11-04T03:47:28;3.63;;;1.50;;
25437;SDS011;13364;49.084;9.978;2022-11-04T03:49:58;4.47;;;1.42;;
25437;SDS011;13364;49.084;9.978;2022-11-04T03:52:26;1.90;;;1.40;;
25437;SDS011;13364;49.084;9.978;2022-11-04T03:54:54;4.72;;;1.55;;
25437;SDS011;13364;49.084;9.978;2022-11-04T04:00:01;2.97;;;1.10;;
25437;SDS011;13364;49.084;9.978;2022-11-04T04:05:40;4.30;;;1.50;;
25437;SDS011;13364;49.084;9.978;2022-11-04T04:11:09;3.17;;;1.30;;
25437;SDS011;13364;49.084;9.978;2022-11-04T04:13:44;2.42;;;1.23;;
25437;SDS011;13364;49.084;9.978;2022-11-04T04:16:32;2.80;;;1.55;;
25437;SDS011;13364;49.084;9.978;2022-11-04T04:19:09;4.20;;;1.23;;
25437;SDS011;13364;49.084;9.978;2022-11-04T04:21:44;4.40;;;1.40;;
25437;SDS011;13364;49.084;9.978;2022-11-04T04:24:17;2.63;;;1.25;;
25437;SDS011;13364;49.084;9.978;2022-11-04T04:27:05;4.80;;;1.20;;
25437;SDS011;13364;49.084;9.978;2022-11-04T04:29:50;5.22;;;1.70;;
25437;SDS011;13364;49.084;9.978;2022-11-04T04:32:19;2.70;;;1.25;;
25437;SDS011;13364;49.084;9.978;2022-11-04T04:34:49;3.58;;;1.67;;
25437;SDS011;13364;49.084;9.978;2022-11-04T04:39:56;4.82;;;1.45;;
25437;SDS011;13364;49.084;9.978;2022-11-04T04:42:51;1.13;;;1.02;;
25437;SDS011;13364;49.084;9.978;2022-11-04T04:45:37;3.50;;;1.40;;
25437;SDS011;13364;49.084;9.978;2022-11-04T04:48:08;1.30;;;1.20;;
25437;SDS011;13364;49.084;9.978;2022-11-04T04:50:43;4.20;;;1.30;;
25437;SDS011;13364;49.084;9.978;2022-11-04T04:53:14;2.33;;;1.30;;
25437;SDS011;13364;49.084;9.978;2022-11-04T04:55:41;3.30;;;1.40;;
25437;SDS011;13364;49.084;9.978;2022-11-04T04:58:08;5.45;;;1.38;;
25437;SDS011;13364;49.084;9.978;2022-11-04T05:00:35;5.95;;;1.27;;
25437;SDS011;13364;49.084;9.978;2022-11-04T05:03:02;5.30;;;1.42;;
25437;SDS011;13364;49.084;9.978;2022-11-04T05:05:29;7.57;;;1.42;;
25437;SDS011;13364;49.084;9.978;2022-11-04T05:08:02;6.07;;;1.27;;
25437;SDS011;13364;49.084;9.978;2022-11-04T05:10:32;2.60;;;1.20;;
25437;SDS011;13364;49.084;9.978;2022-11-04T05:12:59;5.82;;;1.13;;
25437;SDS011;13364;49.084;9.978;2022-11-04T05:15:45;4.55;;;1.50;;
25437;SDS011;13364;49.084;9.978;2022-11-04T05:18:12;4.82;;;1.48;;
25437;SDS011;13364;49.084;9.978;2022-11-04T05:20:39;1.70;;;1.20;;
25437;SDS011;13364;49.084;9.978;2022-11-04T05:23:06;3.22;;;1.17;;
25437;SDS011;13364;49.084;9.978;2022-11-04T05:25:33;6.10;;;1.60;;
25437;SDS011;13364;49.084;9.978;2022-11-04T05:28:00;6.38;;;1.55;;
25437;SDS011;13364;49.084;9.978;2022-11-04T05:30:28;3.70;;;1.42;;
25437;SDS011;13364;49.084;9.978;2022-11-04T05:32:55;7.25;;;1.63;;
25437;SDS011;13364;49.084;9.978;2022-11-04T05:35:28;3.92;;;1.50;;
25437;SDS011;13364;49.084;9.978;2022-11-04T05:37:56;3.08;;;1.17;;
25437;SDS011;13364;49.084;9.978;2022-11-04T05:40:23;7.55;;;1.85;;
25437;SDS011;13364;49.084;9.978;2022-11-04T05:42:50;6.05;;;1.25;;
25437;SDS011;13364;49.084;9.978;2022-11-04T05:45:17;3.63;;;1.20;;
25437;SDS011;13364;49.084;9.978;2022-11-04T05:47:44;3.33;;;1.50;;
25437;SDS011;13364;49.084;9.978;2022-11-04T05:50:11;3.45;;;1.10;;
25437;SDS011;13364;49.084;9.978;2022-11-04T05:52:38;6.38;;;1.30;;
25437;SDS011;13364;49.084;9.978;2022-11-04T05:55:05;3.55;;;1.33;;
25437;SDS011;13364;49.084;9.978;2022-11-04T05:57:32;8.57;;;1.20;;
25437;SDS011;13364;49.084;9.978;2022-11-04T06:00:01;9.35;;;1.45;;
25437;SDS011;13364;49.084;9.978;2022-11-04T06:02:29;6.10;;;1.40;;
25437;SDS011;13364;49.084;9.978;2022-11-04T06:04:56;6.85;;;1.15;;
25437;SDS011;13364;49.084;9.978;2022-11-04T06:07:23;6.50;;;1.08;;
25437;SDS011;13364;49.084;9.978;2022-11-04T06:09:50;3.42;;;1.48;;
25437;SDS011;13364;49.084;9.978;2022-11-04T06:12:17;2.95;;;1.42;;
25437;SDS011;13364;49.084;9.978;2022-11-04T06:14:44;2.83;;;1.15;;
25437;SDS011;13364;49.084;9.978;2022-11-04T06:17:15;5.30;;;1.40;;
25437;SDS011;13364;49.084;9.978;2022-11-04T06:19:44;4.03;;;1.00;;
25437;SDS011;13364;49.084;9.978;2022-11-04T06:22:11;5.63;;;1.40;;
25437;SDS011;13364;49.084;9.978;2022-11-04T06:24:43;6.22;;;1.35;;
25437;SDS011;13364;49.084;9.978;2022-11-04T06:27:10;4.90;;;1.30;;
25437;SDS011;13364;49.084;9.978;2022-11-04T06:29:38;4.30;;;1.30;;
25437;SDS011;13364;49.084;9.978;2022-11-04T06:32:07;4.50;;;1.35;;
25437;SDS011;13364;49.084;9.978;2022-11-04T06:34:35;2.80;;;1.00;;
25437;SDS011;13364;49.084;9.978;2022-11-04T06:37:02;5.25;;;1.13;;
25437;SDS011;13364;49.084;9.978;2022-11-04T06:39:30;4.95;;;1.40;;
25437;SDS011;13364;49.084;9.978;2022-11-04T06:41:57;3.38;;;1.30;;
25437;SDS011;13364;49.084;9.978;2022-11-04T06:44:26;6.63;;;1.38;;
25437;SDS011;13364;49.084;9.978;2022-11-04T06:46:53;4.55;;;1.40;;
25437;SDS011;13364;49.084;9.978;2022-11-04T06:49:20;2.55;;;1.02;;
25437;SDS011;13364;49.084;9.978;2022-11-04T06:51:48;4.47;;;1.33;;
25437;SDS011;13364;49.084;9.978;2022-11-04T06:54:15;1.92;;;1.10;;
25437;SDS011;13364;49.084;9.978;2022-11-04T06:56:43;5.28;;;1.50;;
25437;SDS011;13364;49.084;9.978;2022-11-04T06:59:17;2.55;;;1.85;;
25437;SDS011;13364;49.084;9.978;2022-11-04T07:01:46;5.88;;;2.40;;
25437;SDS011;13364;49.084;9.978;2022-11-04T07:04:15;4.47;;;2.00;;
25437;SDS011;13364;49.084;9.978;2022-11-04T07:06:42;5.55;;;2.30;;
25437;SDS011;13364;49.084;9.978;2022-11-04T07:09:11;6.97;;;1.83;;
25437;SDS011;13364;49.084;9.978;2022-11-04T07:11:39;3.63;;;2.00;;
25437;SDS011;13364;49.084;9.978;2022-11-04T07:14:07;4.53;;;1.73;;
25437;SDS011;13364;49.084;9.978;2022-11-04T07:16:35;4.40;;;2.20;;
25437;SDS011;13364;49.084;9.978;2022-11-04T07:19:02;6.07;;;1.80;;
25437;SDS011;13364;49.084;9.978;2022-11-04T07:21:30;6.88;;;2.28;;
25437;SDS011;13364;49.084;9.978;2022-11-04T07:27:27;4.47;;;1.52;;
25437;SDS011;13364;49.084;9.978;2022-11-04T07:29:54;6.60;;;1.80;;
25437;SDS011;13364;49.084;9.978;2022-11-04T07:32:21;6.35;;;1.88;;
25437;SDS011;13364;49.084;9.978;2022-11-04T07:34:48;9.85;;;2.28;;
25437;SDS011;13364;49.084;9.978;2022-11-04T07:37:15;6.00;;;2.13;;
25437;SDS011;13364;49.084;9.978;2022-11-04T07:39:42;6.85;;;2.65;;
25437;SDS011;13364;49.084;9.978;2022-11-04T07:42:09;5.72;;;2.50;;
25437;SDS011;13364;49.084;9.978;2022-11-04T07:44:38;5.05;;;2.15;;
25437;SDS011;13364;49.084;9.978;2022-11-04T07:47:04;6.88;;;2.00;;
25437;SDS011;13364;49.084;9.978;2022-11-04T07:49:31;6.00;;;2.88;;
25437;SDS011;13364;49.084;9.978;2022-11-04T07:51:59;6.70;;;3.65;;
25437;SDS011;13364;49.084;9.978;2022-11-04T07:54:25;5.45;;;2.20;;
25437;SDS011;13364;49.084;9.978;2022-11-04T07:56:54;6.07;;;3.42;;
25437;SDS011;13364;49.084;9.978;2022-11-04T07:59:21;7.45;;;4.88;;
25437;SDS011;13364;49.084;9.978;2022-11-04T08:01:48;11.60;;;6.20;;
25437;SDS011;13364;49.084;9.978;2022-11-04T08:04:15;15.27;;;6.43;;
25437;SDS011;13364;49.084;9.978;2022-11-04T08:06:42;12.23;;;5.95;;
25437;SDS011;13364;49.084;9.978;2022-11-04T08:09:09;12.18;;;4.80;;
25437;SDS011;13364;49.084;9.978;2022-11-04T08:11:36;7.13;;;4.30;;
25437;SDS011;13364;49.084;9.978;2022-11-04T08:14:03;4.65;;;3.28;;
25437;SDS011;13364;49.084;9.978;2022-11-04T08:16:30;5.95;;;2.95;;
25437;SDS011;13364;49.084;9.978;2022-11-04T08:21:28;8.60;;;2.78;;
25437;SDS011;13364;49.084;9.978;2022-11-04T08:23:56;18.05;;;3.50;;
25437;SDS011;13364;49.084;9.978;2022-11-04T08:26:23;14.73;;;2.97;;
25437;SDS011;13364;49.084;9.978;2022-11-04T08:28:51;7.60;;;2.30;;
25437;SDS011;13364;49.084;9.978;2022-11-04T08:31:25;5.20;;;1.60;;
25437;SDS011;13364;49.084;9.978;2022-11-04T08:33:54;6.75;;;1.55;;
25437;SDS011;13364;49.084;9.978;2022-11-04T08:36:25;7.15;;;1.98;;
25437;SDS011;13364;49.084;9.978;2022-11-04T08:38:54;5.93;;;2.33;;
25437;SDS011;13364;49.084;9.978;2022-11-04T08:41:23;6.65;;;1.70;;
25437;SDS011;13364;49.084;9.978;2022-11-04T08:43:52;6.68;;;1.92;;
25437;SDS011;13364;49.084;9.978;2022-11-04T08:46:20;5.25;;;1.98;;
25437;SDS011;13364;49.084;9.978;2022-11-04T08:48:47;2.60;;;1.85;;
25437;SDS011;13364;49.084;9.978;2022-11-04T08:51:24;5.25;;;1.92;;
25437;SDS011;13364;49.084;9.978;2022-11-04T08:53:52;2.95;;;1.70;;
25437;SDS011;13364;49.084;9.978;2022-11-04T08:58:55;6.47;;;1.80;;
25437;SDS011;13364;49.084;9.978;2022-11-04T09:01:24;3.42;;;1.65;;
25437;SDS011;13364;49.084;9.978;2022-11-04T09:03:59;2.45;;;1.50;;
25437;SDS011;13364;49.084;9.978;2022-11-04T09:06:27;2.95;;;1.63;;
25437;SDS011;13364;49.084;9.978;2022-11-04T09:08:57;5.05;;;1.83;;
25437;SDS011;13364;49.084;9.978;2022-11-04T09:11:30;4.43;;;1.83;;
25437;SDS011;13364;49.084;9.978;2022-11-04T09:13:59;6.03;;;1.80;;
25437;SDS011;13364;49.084;9.978;2022-11-04T09:16:27;6.53;;;2.10;;
25437;SDS011;13364;49.084;9.978;2022-11-04T09:18:56;3.63;;;1.38;;
25437;SDS011;13364;49.084;9.978;2022-11-04T09:21:24;4.70;;;1.88;;
25437;SDS011;13364;49.084;9.978;2022-11-04T09:23:52;6.88;;;1.80;;
25437;SDS011;13364;49.084;9.978;2022-11-04T09:26:20;5.55;;;1.80;;
25437;SDS011;13364;49.084;9.978;2022-11-04T09:28:52;4.38;;;1.60;;
25437;SDS011;13364;49.084;9.978;2022-11-04T09:31:24;4.68;;;1.50;;
25437;SDS011;13364;49.084;9.978;2022-11-04T09:33:53;5.85;;;1.50;;
25437;SDS011;13364;49.084;9.978;2022-11-04T09:36:21;2.55;;;1.50;;
25437;SDS011;13364;49.084;9.978;2022-11-04T09:38:48;4.00;;;1.63;;
25437;SDS011;13364;49.084;9.978;2022-11-04T09:49:22;2.55;;;1.60;;
25437;SDS011;13364;49.084;9.978;2022-11-04T09:56:55;2.40;;;1.33;;
25437;SDS011;13364;49.084;9.978;2022-11-04T09:59:28;5.45;;;1.30;;
25437;SDS011;13364;49.084;9.978;2022-11-04T10:04:35;5.45;;;1.42;;
25437;SDS011;13364;49.084;9.978;2022-11-04T10:07:25;3.22;;;2.00;;
25437;SDS011;13364;49.084;9.978;2022-11-04T10:15:48;2.00;;;1.50;;
25437;SDS011;13364;49.084;9.978;2022-11-04T10:18:42;3.25;;;1.40;;
25437;SDS011;13364;49.084;9.978;2022-11-04T10:21:30;3.70;;;1.35;;
25437;SDS011;13364;49.084;9.978;2022-11-04T10:24:28;1.50;;;1.15;;
25437;SDS011;13364;49.084;9.978;2022-11-04T10:27:11;3.92;;;1.15;;
25437;SDS011;13364;49.084;9.978;2022-11-04T10:29:46;2.60;;;1.25;;
25437;SDS011;13364;49.084;9.978;2022-11-04T10:32:37;2.38;;;1.00;;
25437;SDS011;13364;49.084;9.978;2022-11-04T10:40:49;4.82;;;1.58;;
25437;SDS011;13364;49.084;9.978;2022-11-04T10:43:37;4.28;;;1.33;;
25437;SDS011;13364;49.084;9.978;2022-11-04T10:52:04;4.70;;;1.60;;
25437;SDS011;13364;49.084;9.978;2022-11-04T10:54:35;1.60;;;1.08;;
25437;SDS011;13364;49.084;9.978;2022-11-04T10:57:09;1.48;;;1.05;;
25437;SDS011;13364;49.084;9.978;2022-11-04T11:07:46;1.35;;;1.10;;
25437;SDS011;13364;49.084;9.978;2022-11-04T11:10:25;3.28;;;1.27;;
25437;SDS011;13364;49.084;9.978;2022-11-04T11:13:06;5.07;;;1.10;;
25437;SDS011;13364;49.084;9.978;2022-11-04T11:21:41;2.58;;;1.38;;
25437;SDS011;13364;49.084;9.978;2022-11-04T11:24:16;2.08;;;1.50;;
25437;SDS011;13364;49.084;9.978;2022-11-04T11:26:46;2.97;;;2.08;;
25437;SDS011;13364;49.084;9.978;2022-11-04T11:29:24;4.13;;;1.70;;
25437;SDS011;13364;49.084;9.978;2022-11-04T11:31:52;3.92;;;1.67;;
25437;SDS011;13364;49.084;9.978;2022-11-04T11:34:25;3.72;;;1.27;;
25437;SDS011;13364;49.084;9.978;2022-11-04T11:36:57;2.47;;;1.35;;
25437;SDS011;13364;49.084;9.978;2022-11-04T11:39:28;5.78;;;1.60;;
25437;SDS011;13364;49.084;9.978;2022-11-04T11:44:41;2.10;;;1.00;;
25437;SDS011;13364;49.084;9.978;2022-11-04T11:52:39;4.55;;;2.05;;
25437;SDS011;13364;49.084;9.978;2022-11-04T11:55:18;4.03;;;1.35;;
25437;SDS011;13364;49.084;9.978;2022-11-04T12:00:44;3.97;;;1.33;;
25437;SDS011;13364;49.084;9.978;2022-11-04T12:03:45;2.80;;;1.20;;
25437;SDS011;13364;49.084;9.978;2022-11-04T12:09:35;3.50;;;1.65;;
25437;SDS011;13364;49.084;9.978;2022-11-04T12:26:35;1.35;;;1.02;;
25437;SDS011;13364;49.084;9.978;2022-11-04T12:35:09;3.22;;;1.60;;
25437;SDS011;13364;49.084;9.978;2022-11-04T12:40:26;7.03;;;3.30;;
25437;SDS011;13364;49.084;9.978;2022-11-04T13:00:47;3.55;;;1.17;;
25437;SDS011;13364;49.084;9.978;2022-11-04T13:03:31;5.85;;;1.48;;
25437;SDS011;13364;49.084;9.978;2022-11-04T13:06:27;3.97;;;1.13;;
25437;SDS011;13364;49.084;9.978;2022-11-04T13:09:13;1.42;;;0.95;;
25437;SDS011;13364;49.084;9.978;2022-11-04T13:11:53;3.80;;;1.15;;
25437;SDS011;13364;49.084;9.978;2022-11-04T13:14:26;5.65;;;1.33;;
25437;SDS011;13364;49.084;9.978;2022-11-04T13:16:58;3.25;;;1.33;;
25437;SDS011;13364;49.084;9.978;2022-11-04T13:19:39;3.75;;;1.08;;
25437;SDS011;13364;49.084;9.978;2022-11-04T13:22:15;3.95;;;1.40;;
25437;SDS011;13364;49.084;9.978;2022-11-04T13:25:03;8.48;;;1.30;;
25437;SDS011;13364;49.084;9.978;2022-11-04T13:27:49;4.03;;;1.25;;
25437;SDS011;13364;49.084;9.978;2022-11-04T13:33:07;3.05;;;1.35;;
25437;SDS011;13364;49.084;9.978;2022-11-04T13:38:36;4.78;;;1.25;;
25437;SDS011;13364;49.084;9.978;2022-11-04T13:43:58;5.75;;;1.60;;
25437;SDS011;13364;49.084;9.978;2022-11-04T13:46:29;3.03;;;1.60;;
25437;SDS011;13364;49.084;9.978;2022-11-04T13:49:05;2.25;;;1.25;;
25437;SDS011;13364;49.084;9.978;2022-11-04T14:02:36;4.32;;;1.35;;
25437;SDS011;13364;49.084;9.978;2022-11-04T14:08:11;2.90;;;1.48;;
25437;SDS011;13364;49.084;9.978;2022-11-04T14:16:01;5.70;;;1.80;;
25437;SDS011;13364;49.084;9.978;2022-11-04T14:18:36;7.93;;;1.67;;
25437;SDS011;13364;49.084;9.978;2022-11-04T14:21:09;4.75;;;1.63;;
25437;SDS011;13364;49.084;9.978;2022-11-04T14:23:39;3.92;;;1.90;;
25437;SDS011;13364;49.084;9.978;2022-11-04T14:26:15;4.72;;;2.30;;
25437;SDS011;13364;49.084;9.978;2022-11-04T14:28:45;4.97;;;2.28;;
25437;SDS011;13364;49.084;9.978;2022-11-04T14:34:24;4.20;;;1.25;;
25437;SDS011;13364;49.084;9.978;2022-11-04T14:36:56;4.93;;;1.35;;
25437;SDS011;13364;49.084;9.978;2022-11-04T14:39:29;5.45;;;1.20;;
25437;SDS011;13364;49.084;9.978;2022-11-04T14:42:02;2.53;;;1.10;;
25437;SDS011;13364;49.084;9.978;2022-11-04T14:44:35;6.75;;;1.27;;
25437;SDS011;13364;49.084;9.978;2022-11-04T14:47:17;5.57;;;1.27;;
25437;SDS011;13364;49.084;9.978;2022-11-04T14:49:48;2.55;;;1.00;;
25437;SDS011;13364;49.084;9.978;2022-11-04T14:55:19;4.35;;;1.13;;
25437;SDS011;13364;49.084;9.978;2022-11-04T14:57:52;3.17;;;1.10;;
25437;SDS011;13364;49.084;9.978;2022-11-04T15:00:33;4.32;;;1.20;;
25437;SDS011;13364;49.084;9.978;2022-11-04T15:06:10;3.50;;;1.10;;
25437;SDS011;13364;49.084;9.978;2022-11-04T15:13:43;3.30;;;2.10;;
25437;SDS011;13364;49.084;9.978;2022-11-04T15:18:45;10.43;;;4.05;;
25437;SDS011;13364;49.084;9.978;2022-11-04T15:21:12;5.97;;;3.47;;
25437;SDS011;13364;49.084;9.978;2022-11-04T15:23:42;4.18;;;2.00;;
25437;SDS011;13364;49.084;9.978;2022-11-04T15:26:18;4.18;;;1.83;;
25437;SDS011;13364;49.084;9.978;2022-11-04T15:28:56;5.63;;;2.50;;
25437;SDS011;13364;49.084;9.978;2022-11-04T15:31:30;8.13;;;3.22;;
25437;SDS011;13364;49.084;9.978;2022-11-04T15:34:00;6.28;;;3.53;;
25437;SDS011;13364;49.084;9.978;2022-11-04T15:39:07;7.40;;;2.60;;
25437;SDS011;13364;49.084;9.978;2022-11-04T15:41:53;4.18;;;2.25;;
25437;SDS011;13364;49.084;9.978;2022-11-04T15:44:46;6.05;;;1.98;;
25437;SDS011;13364;49.084;9.978;2022-11-04T15:49:43;5.25;;;2.03;;
25437;SDS011;13364;49.084;9.978;2022-11-04T15:52:22;3.08;;;1.02;;
25437;SDS011;13364;49.084;9.978;2022-11-04T15:54:52;5.07;;;1.33;;
25437;SDS011;13364;49.084;9.978;2022-11-04T15:57:25;5.22;;;0.98;;
25437;SDS011;13364;49.084;9.978;2022-11-04T16:00:06;2.38;;;1.17;;
25437;SDS011;13364;49.084;9.978;2022-11-04T16:02:38;4.43;;;1.15;;
25437;SDS011;13364;49.084;9.978;2022-11-04T16:07:46;3.72;;;1.00;;
25437;SDS011;13364;49.084;9.978;2022-11-04T16:10:33;1.63;;;0.95;;
25437;SDS011;13364;49.084;9.978;2022-11-04T16:13:02;3.50;;;0.95;;
25437;SDS011;13364;49.084;9.978;2022-11-04T16:16:02;5.75;;;1.40;;
25437;SDS011;13364;49.084;9.978;2022-11-04T16:18:47;5.40;;;1.27;;
25437;SDS011;13364;49.084;9.978;2022-11-04T16:21:30;4.05;;;1.30;;
25437;SDS011;13364;49.084;9.978;2022-11-04T16:24:03;4.88;;;1.17;;
25437;SDS011;13364;49.084;9.978;2022-11-04T16:26:42;4.88;;;1.02;;
25437;SDS011;13364;49.084;9.978;2022-11-04T16:29:16;3.50;;;1.52;;
25437;SDS011;13364;49.084;9.978;2022-11-04T16:31:45;3.47;;;1.13;;
25437;SDS011;13364;49.084;9.978;2022-11-04T16:34:29;3.45;;;1.30;;
25437;SDS011;13364;49.084;9.978;2022-11-04T16:36:59;3.35;;;1.25;;
25437;SDS011;13364;49.084;9.978;2022-11-04T16:39:26;2.38;;;1.20;;
25437;SDS011;13364;49.084;9.978;2022-11-04T16:41:54;2.47;;;1.25;;
25437;SDS011;13364;49.084;9.978;2022-11-04T16:44:22;5.95;;;1.50;;
25437;SDS011;13364;49.084;9.978;2022-11-04T16:46:50;3.53;;;1.02;;
25437;SDS011;13364;49.084;9.978;2022-11-04T16:49:18;5.40;;;1.35;;
25437;SDS011;13364;49.084;9.978;2022-11-04T16:51:48;5.07;;;1.40;;
25437;SDS011;13364;49.084;9.978;2022-11-04T16:54:25;3.22;;;1.40;;
25437;SDS011;13364;49.084;9.978;2022-11-04T16:56:53;7.70;;;1.50;;
25437;SDS011;13364;49.084;9.978;2022-11-04T16:59:21;4.03;;;1.58;;
25437;SDS011;13364;49.084;9.978;2022-11-04T17:01:48;3.80;;;1.52;;
25437;SDS011;13364;49.084;9.978;2022-11-04T17:04:16;4.40;;;1.55;;
25437;SDS011;13364;49.084;9.978;2022-11-04T17:06:43;4.93;;;1.80;;
25437;SDS011;13364;49.084;9.978;2022-11-04T17:09:16;5.50;;;1.60;;
25437;SDS011;13364;49.084;9.978;2022-11-04T17:11:47;3.20;;;1.70;;
25437;SDS011;13364;49.084;9.978;2022-11-04T17:14:15;4.03;;;1.85;;
25437;SDS011;13364;49.084;9.978;2022-11-04T17:16:42;4.72;;;1.70;;
25437;SDS011;13364;49.084;9.978;2022-11-04T17:19:13;7.18;;;1.70;;
25437;SDS011;13364;49.084;9.978;2022-11-04T17:21:42;3.67;;;1.58;;
25437;SDS011;13364;49.084;9.978;2022-11-04T17:24:10;4.93;;;2.00;;
25437;SDS011;13364;49.084;9.978;2022-11-04T17:26:37;5.75;;;1.92;;
25437;SDS011;13364;49.084;9.978;2022-11-04T17:29:05;5.35;;;2.05;;
25437;SDS011;13364;49.084;9.978;2022-11-04T17:31:32;4.40;;;1.75;;
25437;SDS011;13364;49.084;9.978;2022-11-04T17:33:59;6.03;;;1.88;;
25437;SDS011;13364;49.084;9.978;2022-11-04T17:36:26;4.47;;;2.10;;
25437;SDS011;13364;49.084;9.978;2022-11-04T17:38:53;5.03;;;1.73;;
25437;SDS011;13364;49.084;9.978;2022-11-04T17:41:20;6.10;;;2.50;;
25437;SDS011;13364;49.084;9.978;2022-11-04T17:44:05;9.13;;;3.30;;
25437;SDS011;13364;49.084;9.978;2022-11-04T17:46:33;8.02;;;4.25;;
25437;SDS011;13364;49.084;9.978;2022-11-04T17:49:01;8.27;;;4.60;;
25437;SDS011;13364;49.084;9.978;2022-11-04T17:51:43;8.02;;;4.82;;
25437;SDS011;13364;49.084;9.978;2022-11-04T17:54:11;12.38;;;6.55;;
25437;SDS011;13364;49.084;9.978;2022-11-04T17:56:39;12.68;;;8.90;;
25437;SDS011;13364;49.084;9.978;2022-11-04T17:59:07;14.32;;;8.00;;
25437;SDS011;13364;49.084;9.978;2022-11-04T18:01:37;10.82;;;6.40;;
25437;SDS011;13364;49.084;9.978;2022-11-04T18:04:05;23.40;;;11.50;;
25437;SDS011;13364;49.084;9.978;2022-11-04T18:06:33;22.25;;;12.32;;
25437;SDS011;13364;49.084;9.978;2022-11-04T18:09:05;20.65;;;11.07;;
25437;SDS011;13364;49.084;9.978;2022-11-04T18:11:32;12.68;;;8.43;;
25437;SDS011;13364;49.084;9.978;2022-11-04T18:14:18;11.20;;;5.75;;
25437;SDS011;13364;49.084;9.978;2022-11-04T18:16:46;4.65;;;3.80;;
25437;SDS011;13364;49.084;9.978;2022-11-04T18:19:14;4.70;;;2.67;;
25437;SDS011;13364;49.084;9.978;2022-11-04T18:21:43;5.38;;;2.58;;
25437;SDS011;13364;49.084;9.978;2022-11-04T18:24:10;6.30;;;2.28;;
25437;SDS011;13364;49.084;9.978;2022-11-04T18:26:37;7.07;;;2.17;;
25437;SDS011;13364;49.084;9.978;2022-11-04T18:29:05;6.70;;;2.17;;
25437;SDS011;13364;49.084;9.978;2022-11-04T18:31:34;3.75;;;1.90;;
25437;SDS011;13364;49.084;9.978;2022-11-04T18:34:04;4.72;;;1.65;;
25437;SDS011;13364;49.084;9.978;2022-11-04T18:36:35;2.92;;;1.40;;
25437;SDS011;13364;49.084;9.978;2022-11-04T18:39:06;4.18;;;1.52;;
25437;SDS011;13364;49.084;9.978;2022-11-04T18:41:35;5.38;;;1.70;;
25437;SDS011;13364;49.084;9.978;2022-11-04T18:44:02;6.18;;;2.17;;
25437;SDS011;13364;49.084;9.978;2022-11-04T18:46:29;7.93;;;4.00;;
25437;SDS011;13364;49.084;9.978;2022-11-04T18:48:56;7.70;;;3.90;;